createdAt,value
2018-10-16T00:02:14.127Z,34.89
2018-10-16T00:04:44.104Z,33.84
2018-10-16T00:07:14.147Z,35.15
2018-10-16T00:09:44.147Z,35.14
2018-10-16T00:12:14.140Z,35.31
2018-10-16T00:14:44.171Z,34.30
2018-10-16T00:17:14.173Z,35.71
2018-10-16T00:19:44.199Z,35.04
2018-10-16T00:22:14.236Z,35.22
2018-10-16T00:24:44.371Z,35.55
2018-10-16T00:27:14.344Z,35.22
2018-10-16T00:29:44.369Z,34.73
2018-10-16T00:32:14.278Z,35.46
2018-10-16T00:34:44.231Z,35.62
2018-10-16T00:37:14.299Z,35.30
2018-10-16T00:39:44.327Z,35.61
2018-10-16T00:42:14.441Z,36.02
2018-10-16T00:44:44.378Z,36.28
2018-10-16T00:47:14.376Z,35.32
2018-10-16T00:49:44.675Z,35.42
2018-10-16T00:52:14.915Z,36.18
2018-10-16T00:54:44.941Z,36.53
2018-10-16T00:57:14.931Z,36.00
2018-10-16T00:59:44.947Z,35.84
2018-10-16T01:02:15.063Z,35.70
2018-10-16T01:04:45.113Z,35.66
2018-10-16T01:07:15.095Z,36.86
2018-10-16T01:09:45.148Z,36.34
2018-10-16T01:12:15.119Z,37.42
2018-10-16T01:14:45.231Z,36.69
2018-10-16T01:17:15.166Z,37.57
2018-10-16T01:19:45.171Z,37.92
2018-10-16T01:22:15.422Z,37.11
2018-10-16T01:24:45.405Z,37.05
2018-10-16T01:27:15.351Z,37.83
2018-10-16T01:29:45.871Z,37.23
2018-10-16T01:32:15.757Z,37.72
2018-10-16T01:34:45.779Z,37.47
2018-10-16T01:37:15.689Z,37.85
2018-10-16T01:39:45.712Z,37.67
2018-10-16T01:42:15.715Z,36.61
2018-10-16T01:44:45.783Z,37.52
2018-10-16T01:47:15.864Z,37.66
2018-10-16T01:49:45.784Z,37.02
2018-10-16T01:52:15.808Z,38.31
2018-10-16T01:54:45.691Z,37.21
2018-10-16T01:57:16.119Z,38.27
2018-10-16T01:59:46.059Z,38.01
2018-10-16T02:02:15.830Z,37.33
2018-10-16T02:04:45.596Z,37.31
2018-10-16T02:07:15.321Z,37.61
2018-10-16T02:09:44.966Z,38.02
2018-10-16T02:12:14.574Z,38.20
2018-10-16T02:14:45.027Z,38.59
2018-10-16T02:17:14.643Z,37.71
2018-10-16T02:19:44.397Z,37.53
2018-10-16T02:22:14.018Z,39.31
2018-10-16T02:24:43.690Z,38.97
2018-10-16T02:27:13.362Z,38.34
2018-10-16T02:29:43.038Z,39.60
2018-10-16T02:32:13.640Z,38.25
2018-10-16T02:34:43.707Z,38.00
2018-10-16T02:37:13.750Z,38.96
2018-10-16T02:39:43.603Z,39.21
2018-10-16T02:42:13.842Z,38.74
2018-10-16T02:44:43.847Z,39.51
2018-10-16T02:47:13.787Z,39.53
2018-10-16T02:49:43.776Z,39.30
2018-10-16T02:52:13.821Z,40.12
2018-10-16T02:54:43.803Z,39.70
2018-10-16T02:57:13.751Z,39.83
2018-10-16T02:59:43.776Z,38.56
2018-10-16T03:02:13.767Z,39.49
2018-10-16T03:04:43.779Z,38.62
2018-10-16T03:07:13.779Z,39.19
2018-10-16T03:09:43.799Z,39.07
2018-10-16T03:12:13.461Z,38.71
2018-10-16T03:14:43.170Z,38.07
2018-10-16T03:17:12.846Z,38.79
2018-10-16T03:19:42.561Z,39.70
2018-10-16T03:22:12.286Z,38.74
2018-10-16T03:24:41.984Z,38.81
2018-10-16T03:27:11.684Z,38.78
2018-10-16T03:29:41.290Z,39.45
2018-10-16T03:32:10.995Z,39.82
2018-10-16T03:34:40.566Z,39.40
2018-10-16T03:37:10.219Z,39.42
2018-10-16T03:39:39.785Z,39.59
2018-10-16T03:42:09.390Z,39.40
2018-10-16T03:44:39.065Z,39.71
2018-10-16T03:47:08.638Z,40.44
2018-10-16T03:49:38.206Z,40.05
2018-10-16T03:52:07.814Z,40.28
2018-10-16T03:54:37.450Z,39.43
2018-10-16T03:57:07.336Z,39.63
2018-10-16T03:59:36.978Z,40.28
2018-10-16T04:02:06.654Z,40.28
2018-10-16T04:04:36.389Z,40.62
2018-10-16T04:07:06.540Z,40.23
2018-10-16T04:09:36.321Z,39.87
2018-10-16T04:12:06.122Z,40.15
2018-10-16T04:14:35.842Z,39.81
2018-10-16T04:17:05.718Z,40.12
2018-10-16T04:19:35.518Z,39.69
2018-10-16T04:22:05.146Z,40.61
2018-10-16T04:24:34.906Z,39.54
2018-10-16T04:27:04.561Z,40.02
2018-10-16T04:29:34.605Z,40.48
2018-10-16T04:32:04.183Z,40.22
2018-10-16T04:34:34.543Z,40.48
2018-10-16T04:37:04.613Z,40.50
2018-10-16T04:39:34.299Z,39.94
2018-10-16T04:42:04.062Z,40.24
2018-10-16T04:44:34.246Z,39.72
2018-10-16T04:47:04.030Z,41.10
2018-10-16T04:49:33.778Z,41.65
2018-10-16T04:52:04.022Z,41.35
2018-10-16T04:54:33.768Z,40.80
2018-10-16T04:57:03.477Z,40.48
2018-10-16T04:59:33.157Z,40.65
2018-10-16T05:02:03.182Z,41.10
2018-10-16T05:04:33.155Z,41.75
2018-10-16T05:07:02.866Z,41.24
2018-10-16T05:09:32.495Z,41.27
2018-10-16T05:12:02.258Z,40.64
2018-10-16T05:14:31.955Z,42.01
2018-10-16T05:17:01.626Z,40.97
2018-10-16T05:19:31.416Z,41.24
2018-10-16T05:22:01.039Z,41.15
2018-10-16T05:24:30.709Z,40.80
2018-10-16T05:27:00.290Z,41.67
2018-10-16T05:29:29.954Z,41.61
2018-10-16T05:31:59.648Z,41.99
2018-10-16T05:34:29.414Z,41.77
2018-10-16T05:36:59.058Z,42.19
2018-10-16T05:39:28.725Z,41.81
2018-10-16T05:41:58.438Z,42.24
2018-10-16T05:44:28.113Z,41.48
2018-10-16T05:46:57.851Z,41.57
2018-10-16T05:49:27.454Z,41.75
2018-10-16T05:51:57.274Z,42.71
2018-10-16T05:54:27.035Z,42.28
2018-10-16T05:56:56.690Z,42.60
2018-10-16T05:59:26.257Z,42.70
2018-10-16T06:01:55.962Z,41.84
2018-10-16T06:04:25.705Z,42.59
2018-10-16T06:06:55.763Z,42.29
2018-10-16T06:09:25.681Z,42.34
2018-10-16T06:11:55.886Z,42.26
2018-10-16T06:14:25.674Z,42.40
2018-10-16T06:16:55.303Z,41.57
2018-10-16T06:19:24.973Z,42.00
2018-10-16T06:21:54.651Z,41.39
2018-10-16T06:24:24.320Z,41.19
2018-10-16T06:26:54.103Z,42.63
2018-10-16T06:29:23.774Z,42.25
2018-10-16T06:31:53.750Z,41.83
2018-10-16T06:34:23.435Z,42.35
2018-10-16T06:36:53.142Z,43.17
2018-10-16T06:39:22.738Z,43.02
2018-10-16T06:41:52.729Z,42.88
2018-10-16T06:44:22.466Z,42.20
2018-10-16T06:46:52.174Z,42.01
2018-10-16T06:49:21.811Z,41.79
2018-10-16T06:51:51.489Z,41.99
2018-10-16T06:54:21.193Z,42.05
2018-10-16T06:56:50.946Z,43.41
2018-10-16T06:59:20.621Z,42.13
2018-10-16T07:01:50.314Z,43.52
2018-10-16T07:04:19.934Z,42.80
2018-10-16T07:06:49.658Z,42.09
2018-10-16T07:09:19.582Z,42.85
2018-10-16T07:11:49.357Z,42.85
2018-10-16T07:14:19.106Z,42.93
2018-10-16T07:16:48.858Z,43.40
2018-10-16T07:19:18.550Z,42.82
2018-10-16T07:21:48.646Z,43.35
2018-10-16T07:24:18.314Z,43.25
2018-10-16T07:26:48.301Z,42.83
2018-10-16T07:29:18.101Z,43.33
2018-10-16T07:31:47.822Z,43.33
2018-10-16T07:34:17.550Z,42.52
2018-10-16T07:36:47.218Z,42.45
2018-10-16T07:39:17.307Z,42.64
2018-10-16T07:41:46.990Z,42.45
2018-10-16T07:44:16.744Z,42.78
2018-10-16T07:46:46.422Z,43.70
2018-10-16T07:49:16.122Z,43.16
2018-10-16T07:51:45.778Z,43.01
2018-10-16T07:54:15.620Z,42.62
2018-10-16T07:56:45.574Z,43.64
2018-10-16T07:59:15.262Z,43.40
2018-10-16T08:01:45.211Z,43.79
2018-10-16T08:04:15.067Z,42.73
2018-10-16T08:06:44.774Z,43.66
2018-10-16T08:09:15.747Z,43.49
2018-10-16T08:11:47.702Z,42.99
2018-10-16T08:14:18.293Z,43.65
2018-10-16T08:16:49.371Z,42.63
2018-10-16T08:19:19.302Z,43.08
2018-10-16T08:21:48.929Z,44.29
2018-10-16T08:24:18.916Z,44.14
2018-10-16T08:26:48.636Z,42.26
2018-10-16T08:29:18.262Z,43.13
2018-10-16T08:31:47.999Z,44.03
2018-10-16T08:34:17.962Z,43.49
2018-10-16T08:36:48.528Z,43.20
2018-10-16T08:39:21.318Z,43.65
2018-10-16T08:42:34.994Z,43.89
2018-10-16T08:45:16.698Z,43.20
2018-10-16T08:47:58.134Z,43.34
2018-10-16T08:50:40.058Z,44.16
2018-10-16T08:53:09.702Z,43.27
2018-10-16T08:55:39.439Z,43.93
2018-10-16T08:58:09.134Z,43.30
2018-10-16T09:00:40.171Z,44.61
2018-10-16T09:03:10.003Z,44.18
2018-10-16T09:05:39.593Z,44.45
2018-10-16T09:08:09.302Z,44.38
2018-10-16T09:10:39.050Z,44.71
2018-10-16T09:13:08.788Z,44.19
2018-10-16T09:15:38.307Z,44.34
2018-10-16T09:18:08.026Z,44.27
2018-10-16T09:20:37.797Z,44.77
2018-10-16T09:23:07.511Z,44.72
2018-10-16T09:25:37.295Z,45.21
2018-10-16T09:28:07.058Z,45.44
2018-10-16T09:30:36.782Z,45.94
2018-10-16T09:33:06.618Z,44.67
2018-10-16T09:35:36.294Z,44.92
2018-10-16T09:38:06.443Z,43.03
2018-10-16T09:40:36.076Z,42.01
2018-10-16T09:43:05.998Z,41.73
2018-10-16T09:45:35.632Z,43.26
2018-10-16T09:48:05.886Z,43.36
2018-10-16T09:50:35.558Z,42.09
2018-10-16T09:53:05.814Z,42.32
2018-10-16T09:55:35.486Z,42.83
2018-10-16T09:58:05.537Z,41.90
2018-10-16T10:00:40.437Z,43.17
2018-10-16T10:03:10.142Z,42.97
2018-10-16T10:05:39.734Z,41.88
2018-10-16T10:08:09.723Z,43.17
2018-10-16T10:10:39.560Z,42.12
2018-10-16T10:13:09.614Z,42.49
2018-10-16T10:15:39.849Z,42.42
2018-10-16T10:18:09.525Z,42.50
2018-10-16T10:20:39.643Z,42.70
2018-10-16T10:23:09.400Z,43.65
2018-10-16T10:25:39.035Z,44.14
2018-10-16T10:28:09.034Z,44.18
2018-10-16T10:30:38.977Z,43.44
2018-10-16T10:33:08.666Z,43.21
2018-10-16T10:35:38.499Z,44.41
2018-10-16T10:38:08.493Z,43.46
2018-10-16T10:40:38.741Z,44.68
2018-10-16T10:43:08.315Z,44.75
2018-10-16T10:45:38.070Z,45.15
2018-10-16T10:48:07.765Z,44.42
2018-10-16T10:50:37.709Z,44.87
2018-10-16T10:53:07.570Z,45.42
2018-10-16T10:55:37.658Z,45.28
2018-10-16T10:58:09.934Z,46.03
2018-10-16T11:00:40.070Z,45.73
2018-10-16T11:03:10.491Z,46.42
2018-10-16T11:05:40.187Z,45.74
2018-10-16T11:08:09.862Z,46.49
2018-10-16T11:10:39.929Z,46.13
2018-10-16T11:13:09.608Z,45.49
2018-10-16T11:15:39.419Z,45.39
2018-10-16T11:18:09.348Z,45.76
2018-10-16T11:20:39.143Z,46.22
2018-10-16T11:23:09.638Z,45.20
2018-10-16T11:25:39.346Z,46.22
2018-10-16T11:28:09.998Z,45.29
2018-10-16T11:30:39.909Z,45.51
2018-10-16T11:33:09.599Z,46.21
2018-10-16T11:35:39.114Z,45.91
2018-10-16T11:38:08.886Z,46.69
2018-10-16T11:40:38.615Z,45.30
2018-10-16T11:43:08.326Z,45.43
2018-10-16T11:45:37.968Z,45.24
2018-10-16T11:48:07.637Z,45.44
2018-10-16T11:50:37.367Z,45.63
2018-10-16T11:53:06.880Z,46.38
2018-10-16T11:55:36.441Z,46.47
2018-10-16T11:58:06.098Z,45.27
2018-10-16T12:00:35.811Z,46.39
2018-10-16T12:03:05.458Z,46.65
2018-10-16T12:05:35.422Z,46.54
2018-10-16T12:08:05.230Z,46.90
2018-10-16T12:10:34.981Z,46.91
2018-10-16T12:13:05.173Z,46.02
2018-10-16T12:15:34.875Z,46.71
2018-10-16T12:18:11.747Z,46.49
2018-10-16T12:20:44.924Z,46.90
2018-10-16T12:23:14.686Z,45.59
2018-10-16T12:25:44.755Z,45.48
2018-10-16T12:28:14.394Z,45.83
2018-10-16T12:30:44.511Z,45.34
2018-10-16T12:33:14.257Z,46.79
2018-10-16T12:35:44.046Z,46.15
2018-10-16T12:38:14.029Z,45.31
2018-10-16T12:40:43.785Z,47.30
2018-10-16T12:43:13.512Z,46.06
2018-10-16T12:45:43.074Z,46.62
2018-10-16T12:48:12.795Z,46.32
2018-10-16T12:50:42.653Z,46.48
2018-10-16T12:53:12.394Z,45.66
2018-10-16T12:55:41.946Z,45.58
2018-10-16T12:58:11.666Z,45.37
2018-10-16T13:00:41.343Z,45.67
2018-10-16T13:03:11.063Z,46.55
2018-10-16T13:05:40.650Z,46.09
2018-10-16T13:08:10.524Z,45.50
2018-10-16T13:10:40.098Z,46.10
2018-10-16T13:13:09.867Z,46.45
2018-10-16T13:15:39.536Z,45.28
2018-10-16T13:18:09.275Z,46.74
2018-10-16T13:20:39.414Z,45.71
2018-10-16T13:23:09.567Z,46.90
2018-10-16T13:25:39.470Z,46.88
2018-10-16T13:28:09.263Z,44.84
2018-10-16T13:30:39.466Z,43.76
2018-10-16T13:33:08.962Z,43.13
2018-10-16T13:35:38.984Z,44.13
2018-10-16T13:38:08.770Z,44.07
2018-10-16T13:40:38.518Z,43.78
2018-10-16T13:43:08.366Z,42.68
2018-10-16T13:45:38.079Z,43.42
2018-10-16T13:48:07.742Z,43.38
2018-10-16T13:50:37.510Z,43.16
2018-10-16T13:53:07.387Z,43.74
2018-10-16T13:55:37.005Z,42.97
2018-10-16T13:58:06.919Z,43.89
2018-10-16T14:00:36.466Z,43.63
2018-10-16T14:03:06.250Z,44.15
2018-10-16T14:05:36.042Z,42.92
2018-10-16T14:08:05.874Z,42.52
2018-10-16T14:10:35.750Z,42.71
2018-10-16T14:13:06.138Z,43.56
2018-10-16T14:15:35.935Z,42.75
2018-10-16T14:18:06.174Z,43.33
2018-10-16T14:20:35.958Z,42.49
2018-10-16T14:23:05.683Z,43.60
2018-10-16T14:25:35.357Z,43.37
2018-10-16T14:28:05.380Z,43.66
2018-10-16T14:30:35.058Z,43.05
2018-10-16T14:33:10.499Z,42.63
2018-10-16T14:35:40.450Z,43.57
2018-10-16T14:38:10.629Z,43.89
2018-10-16T14:40:40.372Z,43.49
2018-10-16T14:43:10.054Z,43.52
2018-10-16T14:45:39.703Z,44.54
2018-10-16T14:48:10.105Z,44.01
2018-10-16T14:50:39.753Z,43.46
2018-10-16T14:53:09.570Z,43.20
2018-10-16T14:55:39.338Z,43.35
2018-10-16T14:58:09.406Z,43.08
2018-10-16T15:00:40.908Z,43.37
2018-10-16T15:03:10.823Z,43.90
2018-10-16T15:05:40.810Z,44.23
2018-10-16T15:08:10.610Z,43.28
2018-10-16T15:10:40.650Z,44.23
2018-10-16T15:13:10.725Z,43.82
2018-10-16T15:15:40.470Z,43.98
2018-10-16T15:18:10.213Z,44.01
2018-10-16T15:20:40.223Z,44.59
2018-10-16T15:23:10.090Z,44.65
2018-10-16T15:25:41.617Z,44.48
2018-10-16T15:28:11.879Z,43.88
2018-10-16T15:30:42.154Z,44.42
2018-10-16T15:33:11.933Z,43.86
2018-10-16T15:35:41.728Z,44.40
2018-10-16T15:38:11.500Z,44.42
2018-10-16T15:40:41.010Z,45.05
2018-10-16T15:43:10.786Z,44.71
2018-10-16T15:45:40.527Z,44.89
2018-10-16T15:48:10.299Z,44.94
2018-10-16T15:50:40.272Z,44.23
2018-10-16T15:53:09.998Z,45.23
2018-10-16T15:55:39.774Z,44.03
2018-10-16T15:58:10.087Z,44.16
2018-10-16T16:00:40.490Z,45.17
2018-10-16T16:03:09.971Z,44.50
2018-10-16T16:05:40.028Z,44.25
2018-10-16T16:08:10.189Z,44.64
2018-10-16T16:10:40.042Z,45.29
2018-10-16T16:13:10.753Z,45.35
2018-10-16T16:15:40.810Z,45.37
2018-10-16T16:18:10.815Z,45.69
2018-10-16T16:20:40.371Z,44.70
2018-10-16T16:23:10.718Z,44.78
2018-10-16T16:25:40.765Z,45.03
2018-10-16T16:28:10.886Z,44.75
2018-10-16T16:30:40.562Z,45.05
2018-10-16T16:33:10.277Z,43.80
2018-10-16T16:35:40.293Z,43.87
2018-10-16T16:38:10.430Z,44.85
2018-10-16T16:40:40.373Z,44.06
2018-10-16T16:43:10.508Z,43.02
2018-10-16T16:45:40.202Z,43.56
2018-10-16T16:48:10.158Z,43.87
2018-10-16T16:50:40.407Z,43.06
2018-10-16T16:53:10.514Z,43.11
2018-10-16T16:55:40.142Z,43.06
2018-10-16T16:58:09.997Z,42.27
2018-10-16T17:00:39.810Z,42.41
2018-10-16T17:03:10.437Z,40.81
2018-10-16T17:05:40.172Z,41.07
2018-10-16T17:08:09.966Z,41.00
2018-10-16T17:10:39.551Z,38.13
2018-10-16T17:13:09.298Z,38.64
2018-10-16T17:15:39.025Z,38.60
2018-10-16T17:18:08.685Z,37.69
2018-10-16T17:20:38.413Z,36.67
2018-10-16T17:23:08.194Z,37.13
2018-10-16T17:25:38.213Z,36.73
2018-10-16T17:28:07.999Z,36.92
2018-10-16T17:30:37.613Z,36.18
2018-10-16T17:33:07.991Z,35.30
2018-10-16T17:35:37.597Z,35.77
2018-10-16T17:38:07.179Z,35.76
2018-10-16T17:40:37.010Z,35.54
2018-10-16T17:43:06.890Z,34.51
2018-10-16T17:45:36.634Z,34.87
2018-10-16T17:48:06.451Z,33.64
2018-10-16T17:50:36.187Z,33.55
2018-10-16T17:53:05.837Z,33.42
2018-10-16T17:55:35.796Z,33.24
2018-10-16T17:58:05.710Z,31.82
2018-10-16T18:00:35.604Z,33.04
2018-10-16T18:03:05.094Z,33.17
2018-10-16T18:05:34.457Z,32.76
2018-10-16T18:08:04.072Z,32.49
2018-10-16T18:10:33.776Z,32.22
2018-10-16T18:13:03.479Z,32.20
2018-10-16T18:15:33.150Z,32.81
2018-10-16T18:18:03.147Z,31.52
2018-10-16T18:20:32.822Z,32.13
2018-10-16T18:23:02.552Z,30.94
2018-10-16T18:25:32.277Z,31.72
2018-10-16T18:28:01.962Z,32.09
2018-10-16T18:30:32.143Z,32.12
2018-10-16T18:33:02.251Z,32.33
2018-10-16T18:35:32.085Z,30.91
2018-10-16T18:38:01.768Z,31.73
2018-10-16T18:40:31.455Z,31.96
2018-10-16T18:43:02.006Z,30.84
2018-10-16T18:45:31.766Z,30.80
2018-10-16T18:48:01.751Z,32.03
2018-10-16T18:50:32.731Z,31.58
2018-10-16T18:53:02.679Z,31.77
2018-10-16T18:55:32.187Z,31.31
2018-10-16T18:58:02.699Z,31.70
2018-10-16T19:00:33.098Z,30.67
2018-10-16T19:03:03.310Z,30.53
2018-10-16T19:05:33.326Z,30.53
2018-10-16T19:08:03.524Z,30.55
2018-10-16T19:10:33.130Z,30.38
2018-10-16T19:13:03.531Z,31.00
2018-10-16T19:15:33.384Z,30.82
2018-10-16T19:18:03.042Z,30.77
2018-10-16T19:20:33.779Z,31.41
2018-10-16T19:23:03.446Z,30.99
2018-10-16T19:25:33.539Z,31.30
2018-10-16T19:28:03.315Z,30.45
2018-10-16T19:30:33.035Z,30.57
2018-10-16T19:33:02.636Z,30.25
2018-10-16T19:35:33.565Z,30.85
2018-10-16T19:38:03.082Z,30.36
2018-10-16T19:40:33.050Z,30.17
2018-10-16T19:43:02.794Z,31.08
2018-10-16T19:45:32.590Z,30.66
2018-10-16T19:48:02.227Z,31.57
2018-10-16T19:50:32.014Z,30.66
2018-10-16T19:53:01.904Z,30.81
2018-10-16T19:55:31.952Z,30.06
2018-10-16T19:58:01.582Z,30.90
2018-10-16T20:00:31.290Z,30.75
2018-10-16T20:03:01.502Z,30.42
2018-10-16T20:05:31.616Z,30.27
2018-10-16T20:08:01.634Z,30.55
2018-10-16T20:10:31.461Z,30.51
2018-10-16T20:13:01.150Z,30.68
2018-10-16T20:15:30.902Z,29.83
2018-10-16T20:18:00.650Z,29.80
2018-10-16T20:20:30.364Z,30.29
2018-10-16T20:23:00.270Z,30.71
2018-10-16T20:25:30.794Z,30.88
2018-10-16T20:28:01.412Z,30.77
2018-10-16T20:30:31.490Z,31.51
2018-10-16T20:33:01.486Z,31.25
2018-10-16T20:35:31.371Z,31.44
2018-10-16T20:38:01.156Z,30.78
2018-10-16T20:40:30.815Z,30.76
2018-10-16T20:43:00.648Z,31.55
2018-10-16T20:45:30.363Z,31.61
2018-10-16T20:48:00.082Z,30.67
2018-10-16T20:50:29.763Z,32.30
2018-10-16T20:52:59.663Z,31.83
2018-10-16T20:55:29.333Z,31.93
2018-10-16T20:57:59.043Z,32.97
2018-10-16T21:00:29.021Z,31.70
2018-10-16T21:02:58.658Z,32.63
2018-10-16T21:05:28.476Z,32.16
2018-10-16T21:07:58.182Z,31.59
2018-10-16T21:10:28.015Z,32.45
2018-10-16T21:12:58.011Z,31.67
2018-10-16T21:15:27.610Z,31.59
2018-10-16T21:17:57.360Z,31.35
2018-10-16T21:20:27.131Z,32.02
2018-10-16T21:22:56.914Z,31.90
2018-10-16T21:25:26.547Z,31.08
2018-10-16T21:27:56.295Z,32.57
2018-10-16T21:30:26.877Z,32.37
2018-10-16T21:32:56.649Z,32.27
2018-10-16T21:35:26.570Z,31.94
2018-10-16T21:37:56.294Z,31.61
2018-10-16T21:40:25.955Z,32.34
2018-10-16T21:42:55.703Z,31.85
2018-10-16T21:45:25.768Z,33.14
2018-10-16T21:47:55.529Z,32.40
2018-10-16T21:50:25.293Z,32.30
2018-10-16T21:52:55.092Z,32.68
2018-10-16T21:55:25.121Z,32.36
2018-10-16T21:57:54.822Z,33.10
2018-10-16T22:00:29.314Z,32.23
2018-10-16T22:02:59.229Z,31.86
2018-10-16T22:05:28.878Z,32.54
2018-10-16T22:07:58.675Z,31.93
2018-10-16T22:10:28.385Z,33.25
2018-10-16T22:12:58.068Z,32.26
2018-10-16T22:15:27.692Z,33.17
2018-10-16T22:17:57.470Z,34.11
2018-10-16T22:20:27.315Z,32.83
2018-10-16T22:22:57.049Z,33.36
2018-10-16T22:25:26.753Z,34.06
2018-10-16T22:27:56.442Z,33.65
2018-10-16T22:30:26.087Z,33.08
2018-10-16T22:32:56.045Z,33.71
2018-10-16T22:35:25.673Z,32.71
2018-10-16T22:37:55.364Z,33.53
2018-10-16T22:40:24.990Z,34.12
2018-10-16T22:42:54.765Z,33.48
2018-10-16T22:45:24.266Z,32.03
2018-10-16T22:47:54.131Z,33.00
2018-10-16T22:50:23.721Z,33.25
2018-10-16T22:52:53.407Z,32.36
2018-10-16T22:55:23.148Z,33.79
2018-10-16T22:57:52.845Z,32.29
2018-10-16T23:00:22.611Z,33.95
2018-10-16T23:02:52.258Z,32.75
2018-10-16T23:05:21.934Z,34.00
2018-10-16T23:07:51.601Z,33.58
2018-10-16T23:10:21.484Z,33.24
2018-10-16T23:12:56.203Z,33.77
2018-10-16T23:15:26.022Z,33.66
2018-10-16T23:17:55.690Z,33.26
2018-10-16T23:20:25.499Z,33.28
2018-10-16T23:22:55.178Z,34.19
2018-10-16T23:25:24.882Z,33.54
2018-10-16T23:27:54.565Z,33.91
2018-10-16T23:30:24.314Z,34.30
2018-10-16T23:32:54.009Z,32.93
2018-10-16T23:35:23.594Z,33.62
2018-10-16T23:37:53.225Z,34.83
2018-10-16T23:40:22.870Z,34.06
2018-10-16T23:42:52.663Z,33.82
2018-10-16T23:45:22.437Z,35.00
2018-10-16T23:47:52.121Z,34.38
2018-10-16T23:50:21.686Z,33.80
2018-10-16T23:52:51.416Z,35.32
2018-10-16T23:55:21.182Z,34.21
2018-10-16T23:57:50.811Z,34.70
